sensor_id;sensor_type;location;lat;lon;timestamp;P1;durP1;ratioP1;P2;durP2;ratioP2
23682;SDS011;24897;53.514;10.482;2022-07-06T00:01:11;40.47;;;37.40;;
23682;SDS011;24897;53.514;10.482;2022-07-06T00:03:55;35.40;;;32.67;;
23682;SDS011;24897;53.514;10.482;2022-07-06T00:06:39;36.20;;;33.50;;
23682;SDS011;24897;53.514;10.482;2022-07-06T00:09:23;33.37;;;30.60;;
23682;SDS011;24897;53.514;10.482;2022-07-06T00:12:08;33.57;;;30.93;;
23682;SDS011;24897;53.514;10.482;2022-07-06T00:14:52;23.07;;;20.80;;
23682;SDS011;24897;53.514;10.482;2022-07-06T00:17:36;22.77;;;20.57;;
23682;SDS011;24897;53.514;10.482;2022-07-06T00:20:20;23.13;;;20.83;;
23682;SDS011;24897;53.514;10.482;2022-07-06T00:23:05;22.60;;;20.33;;
23682;SDS011;24897;53.514;10.482;2022-07-06T00:25:49;23.07;;;20.87;;
23682;SDS011;24897;53.514;10.482;2022-07-06T00:28:33;22.27;;;20.27;;
23682;SDS011;24897;53.514;10.482;2022-07-06T00:31:17;23.60;;;21.33;;
23682;SDS011;24897;53.514;10.482;2022-07-06T00:34:01;23.17;;;20.90;;
23682;SDS011;24897;53.514;10.482;2022-07-06T00:36:45;23.37;;;21.07;;
23682;SDS011;24897;53.514;10.482;2022-07-06T00:39:30;23.00;;;20.70;;
23682;SDS011;24897;53.514;10.482;2022-07-06T00:42:14;23.23;;;21.00;;
23682;SDS011;24897;53.514;10.482;2022-07-06T00:44:58;24.47;;;21.97;;
23682;SDS011;24897;53.514;10.482;2022-07-06T00:47:42;22.90;;;20.63;;
23682;SDS011;24897;53.514;10.482;2022-07-06T00:50:27;23.50;;;21.10;;
23682;SDS011;24897;53.514;10.482;2022-07-06T00:53:11;23.13;;;20.83;;
23682;SDS011;24897;53.514;10.482;2022-07-06T00:55:57;24.10;;;21.90;;
23682;SDS011;24897;53.514;10.482;2022-07-06T00:58:41;23.50;;;21.10;;
23682;SDS011;24897;53.514;10.482;2022-07-06T01:01:26;23.03;;;20.83;;
23682;SDS011;24897;53.514;10.482;2022-07-06T01:04:10;22.83;;;20.53;;
23682;SDS011;24897;53.514;10.482;2022-07-06T01:06:54;23.37;;;21.03;;
23682;SDS011;24897;53.514;10.482;2022-07-06T01:09:40;23.00;;;20.87;;
23682;SDS011;24897;53.514;10.482;2022-07-06T01:12:24;23.17;;;20.90;;
23682;SDS011;24897;53.514;10.482;2022-07-06T01:15:10;23.17;;;20.97;;
23682;SDS011;24897;53.514;10.482;2022-07-06T01:18:02;24.20;;;21.90;;
23682;SDS011;24897;53.514;10.482;2022-07-06T01:20:47;23.53;;;21.13;;
23682;SDS011;24897;53.514;10.482;2022-07-06T01:23:31;24.20;;;21.90;;
23682;SDS011;24897;53.514;10.482;2022-07-06T01:26:16;24.13;;;21.97;;
23682;SDS011;24897;53.514;10.482;2022-07-06T01:29:02;23.63;;;21.43;;
23682;SDS011;24897;53.514;10.482;2022-07-06T01:31:47;23.40;;;21.13;;
23682;SDS011;24897;53.514;10.482;2022-07-06T01:34:32;23.90;;;21.47;;
23682;SDS011;24897;53.514;10.482;2022-07-06T01:37:18;24.03;;;21.53;;
23682;SDS011;24897;53.514;10.482;2022-07-06T01:40:03;23.50;;;21.13;;
23682;SDS011;24897;53.514;10.482;2022-07-06T01:42:49;23.37;;;21.00;;
23682;SDS011;24897;53.514;10.482;2022-07-06T01:45:33;25.10;;;22.60;;
23682;SDS011;24897;53.514;10.482;2022-07-06T01:48:17;24.27;;;21.67;;
23682;SDS011;24897;53.514;10.482;2022-07-06T01:51:02;25.37;;;22.97;;
23682;SDS011;24897;53.514;10.482;2022-07-06T01:53:48;24.50;;;22.17;;
23682;SDS011;24897;53.514;10.482;2022-07-06T01:56:32;23.60;;;21.33;;
23682;SDS011;24897;53.514;10.482;2022-07-06T01:59:16;23.50;;;21.30;;
23682;SDS011;24897;53.514;10.482;2022-07-06T02:02:00;24.17;;;21.70;;
23682;SDS011;24897;53.514;10.482;2022-07-06T02:04:44;24.07;;;21.13;;
23682;SDS011;24897;53.514;10.482;2022-07-06T02:07:28;23.67;;;21.17;;
23682;SDS011;24897;53.514;10.482;2022-07-06T02:10:12;24.30;;;21.87;;
23682;SDS011;24897;53.514;10.482;2022-07-06T02:12:56;24.83;;;22.33;;
23682;SDS011;24897;53.514;10.482;2022-07-06T02:15:40;24.83;;;22.23;;
23682;SDS011;24897;53.514;10.482;2022-07-06T02:18:25;23.67;;;21.30;;
23682;SDS011;24897;53.514;10.482;2022-07-06T02:21:09;24.53;;;22.23;;
23682;SDS011;24897;53.514;10.482;2022-07-06T02:23:53;24.00;;;21.87;;
23682;SDS011;24897;53.514;10.482;2022-07-06T02:26:37;24.20;;;21.70;;
23682;SDS011;24897;53.514;10.482;2022-07-06T02:29:22;25.13;;;22.63;;
23682;SDS011;24897;53.514;10.482;2022-07-06T02:32:06;24.47;;;22.20;;
23682;SDS011;24897;53.514;10.482;2022-07-06T02:34:51;24.23;;;21.80;;
23682;SDS011;24897;53.514;10.482;2022-07-06T02:37:36;23.97;;;21.70;;
23682;SDS011;24897;53.514;10.482;2022-07-06T02:40:21;23.57;;;21.13;;
23682;SDS011;24897;53.514;10.482;2022-07-06T02:43:05;23.47;;;21.17;;
23682;SDS011;24897;53.514;10.482;2022-07-06T02:45:49;23.60;;;21.30;;
23682;SDS011;24897;53.514;10.482;2022-07-06T02:48:33;25.10;;;22.37;;
23682;SDS011;24897;53.514;10.482;2022-07-06T02:51:18;23.83;;;21.60;;
23682;SDS011;24897;53.514;10.482;2022-07-06T02:54:02;23.37;;;21.17;;
23682;SDS011;24897;53.514;10.482;2022-07-06T02:56:46;23.23;;;21.03;;
23682;SDS011;24897;53.514;10.482;2022-07-06T02:59:36;22.97;;;20.90;;
23682;SDS011;24897;53.514;10.482;2022-07-06T03:02:20;22.23;;;20.20;;
23682;SDS011;24897;53.514;10.482;2022-07-06T03:05:05;23.43;;;21.20;;
23682;SDS011;24897;53.514;10.482;2022-07-06T03:07:49;23.57;;;21.40;;
23682;SDS011;24897;53.514;10.482;2022-07-06T03:10:33;25.23;;;22.90;;
23682;SDS011;24897;53.514;10.482;2022-07-06T03:13:18;25.03;;;22.73;;
23682;SDS011;24897;53.514;10.482;2022-07-06T03:16:02;23.67;;;21.33;;
23682;SDS011;24897;53.514;10.482;2022-07-06T03:18:46;24.30;;;22.17;;
23682;SDS011;24897;53.514;10.482;2022-07-06T03:21:30;23.40;;;21.20;;
23682;SDS011;24897;53.514;10.482;2022-07-06T03:24:15;23.80;;;21.50;;
23682;SDS011;24897;53.514;10.482;2022-07-06T03:26:59;25.90;;;23.27;;
23682;SDS011;24897;53.514;10.482;2022-07-06T03:29:43;25.30;;;22.80;;
23682;SDS011;24897;53.514;10.482;2022-07-06T03:32:27;24.63;;;22.30;;
23682;SDS011;24897;53.514;10.482;2022-07-06T03:35:13;25.27;;;22.77;;
23682;SDS011;24897;53.514;10.482;2022-07-06T03:37:57;23.97;;;21.37;;
23682;SDS011;24897;53.514;10.482;2022-07-06T03:40:41;24.23;;;22.00;;
23682;SDS011;24897;53.514;10.482;2022-07-06T03:43:25;24.83;;;22.47;;
23682;SDS011;24897;53.514;10.482;2022-07-06T03:46:09;25.70;;;23.30;;
23682;SDS011;24897;53.514;10.482;2022-07-06T03:48:53;25.13;;;22.83;;
23682;SDS011;24897;53.514;10.482;2022-07-06T03:51:40;24.13;;;21.73;;
23682;SDS011;24897;53.514;10.482;2022-07-06T03:54:24;25.00;;;22.27;;
23682;SDS011;24897;53.514;10.482;2022-07-06T03:57:09;25.83;;;23.13;;
23682;SDS011;24897;53.514;10.482;2022-07-06T03:59:55;25.67;;;22.93;;
23682;SDS011;24897;53.514;10.482;2022-07-06T04:02:39;25.53;;;23.07;;
23682;SDS011;24897;53.514;10.482;2022-07-06T04:05:23;24.23;;;22.00;;
23682;SDS011;24897;53.514;10.482;2022-07-06T04:08:07;24.57;;;21.90;;
23682;SDS011;24897;53.514;10.482;2022-07-06T04:10:51;26.67;;;23.23;;
23682;SDS011;24897;53.514;10.482;2022-07-06T04:13:36;24.97;;;22.37;;
23682;SDS011;24897;53.514;10.482;2022-07-06T04:16:20;26.97;;;24.07;;
23682;SDS011;24897;53.514;10.482;2022-07-06T04:19:04;23.67;;;21.27;;
23682;SDS011;24897;53.514;10.482;2022-07-06T04:21:48;26.07;;;23.50;;
23682;SDS011;24897;53.514;10.482;2022-07-06T04:24:32;23.03;;;20.63;;
23682;SDS011;24897;53.514;10.482;2022-07-06T04:27:17;24.20;;;21.83;;
23682;SDS011;24897;53.514;10.482;2022-07-06T04:30:01;23.47;;;21.03;;
23682;SDS011;24897;53.514;10.482;2022-07-06T04:32:47;24.37;;;21.90;;
23682;SDS011;24897;53.514;10.482;2022-07-06T04:35:31;24.50;;;22.00;;
23682;SDS011;24897;53.514;10.482;2022-07-06T04:38:16;25.03;;;22.70;;
23682;SDS011;24897;53.514;10.482;2022-07-06T04:41:01;24.87;;;22.27;;
23682;SDS011;24897;53.514;10.482;2022-07-06T04:43:45;24.83;;;22.27;;
23682;SDS011;24897;53.514;10.482;2022-07-06T04:46:29;25.80;;;22.83;;
23682;SDS011;24897;53.514;10.482;2022-07-06T04:49:13;27.00;;;24.30;;
23682;SDS011;24897;53.514;10.482;2022-07-06T04:51:57;24.77;;;22.37;;
23682;SDS011;24897;53.514;10.482;2022-07-06T04:54:41;26.77;;;24.17;;
23682;SDS011;24897;53.514;10.482;2022-07-06T04:57:25;27.10;;;24.33;;
23682;SDS011;24897;53.514;10.482;2022-07-06T05:00:12;28.43;;;23.80;;
23682;SDS011;24897;53.514;10.482;2022-07-06T05:02:56;28.07;;;25.07;;
23682;SDS011;24897;53.514;10.482;2022-07-06T05:05:40;32.73;;;24.83;;
23682;SDS011;24897;53.514;10.482;2022-07-06T05:08:24;28.03;;;25.17;;
23682;SDS011;24897;53.514;10.482;2022-07-06T05:11:08;27.10;;;23.17;;
23682;SDS011;24897;53.514;10.482;2022-07-06T05:13:52;26.30;;;22.40;;
23682;SDS011;24897;53.514;10.482;2022-07-06T05:16:36;25.43;;;22.73;;
23682;SDS011;24897;53.514;10.482;2022-07-06T05:19:20;26.73;;;23.90;;
23682;SDS011;24897;53.514;10.482;2022-07-06T05:22:05;26.43;;;23.17;;
23682;SDS011;24897;53.514;10.482;2022-07-06T05:24:49;29.20;;;23.20;;
23682;SDS011;24897;53.514;10.482;2022-07-06T05:27:33;27.40;;;22.10;;
23682;SDS011;24897;53.514;10.482;2022-07-06T05:30:17;26.67;;;22.10;;
23682;SDS011;24897;53.514;10.482;2022-07-06T05:33:01;25.30;;;22.70;;
23682;SDS011;24897;53.514;10.482;2022-07-06T05:35:46;23.90;;;21.57;;
23682;SDS011;24897;53.514;10.482;2022-07-06T05:38:30;24.63;;;21.80;;
23682;SDS011;24897;53.514;10.482;2022-07-06T05:41:14;24.57;;;21.73;;
23682;SDS011;24897;53.514;10.482;2022-07-06T05:44:01;22.80;;;20.60;;
23682;SDS011;24897;53.514;10.482;2022-07-06T05:46:45;23.30;;;20.90;;
23682;SDS011;24897;53.514;10.482;2022-07-06T05:49:29;25.27;;;22.63;;
23682;SDS011;24897;53.514;10.482;2022-07-06T05:52:33;27.77;;;21.67;;
23682;SDS011;24897;53.514;10.482;2022-07-06T05:55:17;23.30;;;20.63;;
23682;SDS011;24897;53.514;10.482;2022-07-06T05:58:01;23.57;;;21.07;;
23682;SDS011;24897;53.514;10.482;2022-07-06T06:00:45;23.80;;;21.30;;
23682;SDS011;24897;53.514;10.482;2022-07-06T06:03:30;26.53;;;22.60;;
23682;SDS011;24897;53.514;10.482;2022-07-06T06:06:14;23.50;;;21.20;;
23682;SDS011;24897;53.514;10.482;2022-07-06T06:08:58;24.77;;;22.20;;
23682;SDS011;24897;53.514;10.482;2022-07-06T06:11:42;25.70;;;23.00;;
23682;SDS011;24897;53.514;10.482;2022-07-06T06:14:27;24.87;;;22.33;;
23682;SDS011;24897;53.514;10.482;2022-07-06T06:17:11;25.00;;;22.27;;
23682;SDS011;24897;53.514;10.482;2022-07-06T06:19:55;24.37;;;21.83;;
23682;SDS011;24897;53.514;10.482;2022-07-06T06:22:46;23.07;;;20.97;;
23682;SDS011;24897;53.514;10.482;2022-07-06T06:25:37;25.07;;;22.40;;
23682;SDS011;24897;53.514;10.482;2022-07-06T06:28:22;25.57;;;22.97;;
23682;SDS011;24897;53.514;10.482;2022-07-06T06:31:06;24.23;;;21.53;;
23682;SDS011;24897;53.514;10.482;2022-07-06T06:33:50;25.97;;;23.17;;
23682;SDS011;24897;53.514;10.482;2022-07-06T06:36:36;26.30;;;23.07;;
23682;SDS011;24897;53.514;10.482;2022-07-06T06:39:20;24.70;;;22.07;;
23682;SDS011;24897;53.514;10.482;2022-07-06T06:42:04;25.30;;;22.60;;
23682;SDS011;24897;53.514;10.482;2022-07-06T06:44:49;25.97;;;23.33;;
23682;SDS011;24897;53.514;10.482;2022-07-06T06:47:33;25.53;;;22.87;;
23682;SDS011;24897;53.514;10.482;2022-07-06T06:50:18;23.83;;;21.53;;
23682;SDS011;24897;53.514;10.482;2022-07-06T06:53:02;26.83;;;24.20;;
23682;SDS011;24897;53.514;10.482;2022-07-06T06:55:47;24.67;;;22.03;;
23682;SDS011;24897;53.514;10.482;2022-07-06T06:58:31;25.33;;;21.67;;
23682;SDS011;24897;53.514;10.482;2022-07-06T07:01:15;24.97;;;22.40;;
23682;SDS011;24897;53.514;10.482;2022-07-06T07:03:59;24.40;;;21.63;;
23682;SDS011;24897;53.514;10.482;2022-07-06T07:06:43;29.83;;;21.90;;
23682;SDS011;24897;53.514;10.482;2022-07-06T07:09:27;29.13;;;22.03;;
23682;SDS011;24897;53.514;10.482;2022-07-06T07:12:11;24.57;;;20.87;;
23682;SDS011;24897;53.514;10.482;2022-07-06T07:14:55;22.53;;;20.33;;
23682;SDS011;24897;53.514;10.482;2022-07-06T07:17:40;23.60;;;21.10;;
23682;SDS011;24897;53.514;10.482;2022-07-06T07:20:25;22.53;;;20.30;;
23682;SDS011;24897;53.514;10.482;2022-07-06T07:23:09;37.30;;;33.30;;
23682;SDS011;24897;53.514;10.482;2022-07-06T07:25:53;21.93;;;20.13;;
23682;SDS011;24897;53.514;10.482;2022-07-06T07:28:37;21.87;;;19.73;;
23682;SDS011;24897;53.514;10.482;2022-07-06T07:31:21;24.63;;;22.27;;
23682;SDS011;24897;53.514;10.482;2022-07-06T07:34:05;22.53;;;20.33;;
23682;SDS011;24897;53.514;10.482;2022-07-06T07:36:49;23.63;;;21.37;;
23682;SDS011;24897;53.514;10.482;2022-07-06T07:39:33;22.40;;;20.23;;
23682;SDS011;24897;53.514;10.482;2022-07-06T07:42:17;21.60;;;19.67;;
23682;SDS011;24897;53.514;10.482;2022-07-06T07:45:01;20.40;;;18.70;;
23682;SDS011;24897;53.514;10.482;2022-07-06T07:47:46;20.90;;;18.73;;
23682;SDS011;24897;53.514;10.482;2022-07-06T07:50:30;19.87;;;18.00;;
23682;SDS011;24897;53.514;10.482;2022-07-06T07:53:14;19.43;;;17.50;;
23682;SDS011;24897;53.514;10.482;2022-07-06T07:55:58;19.33;;;17.60;;
23682;SDS011;24897;53.514;10.482;2022-07-06T07:58:42;18.80;;;17.20;;
23682;SDS011;24897;53.514;10.482;2022-07-06T08:01:26;19.63;;;17.97;;
23682;SDS011;24897;53.514;10.482;2022-07-06T08:04:10;18.67;;;17.00;;
23682;SDS011;24897;53.514;10.482;2022-07-06T08:06:54;19.90;;;18.20;;
23682;SDS011;24897;53.514;10.482;2022-07-06T08:09:39;19.40;;;17.40;;
23682;SDS011;24897;53.514;10.482;2022-07-06T08:12:23;20.50;;;18.60;;
23682;SDS011;24897;53.514;10.482;2022-07-06T08:15:07;18.97;;;17.07;;
23682;SDS011;24897;53.514;10.482;2022-07-06T08:17:51;18.87;;;16.97;;
23682;SDS011;24897;53.514;10.482;2022-07-06T08:20:36;20.10;;;17.73;;
23682;SDS011;24897;53.514;10.482;2022-07-06T08:23:21;19.63;;;17.83;;
23682;SDS011;24897;53.514;10.482;2022-07-06T08:26:05;18.80;;;16.90;;
23682;SDS011;24897;53.514;10.482;2022-07-06T08:28:49;18.47;;;16.70;;
23682;SDS011;24897;53.514;10.482;2022-07-06T08:31:34;17.50;;;16.10;;
23682;SDS011;24897;53.514;10.482;2022-07-06T08:34:18;17.50;;;15.90;;
23682;SDS011;24897;53.514;10.482;2022-07-06T08:37:02;17.00;;;15.43;;
23682;SDS011;24897;53.514;10.482;2022-07-06T08:39:47;17.50;;;16.10;;
23682;SDS011;24897;53.514;10.482;2022-07-06T08:42:32;17.73;;;15.70;;
23682;SDS011;24897;53.514;10.482;2022-07-06T08:45:17;18.50;;;16.60;;
23682;SDS011;24897;53.514;10.482;2022-07-06T08:48:03;18.50;;;16.90;;
23682;SDS011;24897;53.514;10.482;2022-07-06T08:50:49;19.27;;;17.47;;
23682;SDS011;24897;53.514;10.482;2022-07-06T08:53:33;16.30;;;14.73;;
23682;SDS011;24897;53.514;10.482;2022-07-06T08:56:18;15.73;;;14.50;;
23682;SDS011;24897;53.514;10.482;2022-07-06T08:59:02;16.53;;;14.90;;
23682;SDS011;24897;53.514;10.482;2022-07-06T09:01:47;16.00;;;14.60;;
23682;SDS011;24897;53.514;10.482;2022-07-06T09:04:35;16.13;;;14.70;;
23682;SDS011;24897;53.514;10.482;2022-07-06T09:07:20;16.17;;;14.77;;
23682;SDS011;24897;53.514;10.482;2022-07-06T09:10:06;16.50;;;15.10;;
23682;SDS011;24897;53.514;10.482;2022-07-06T09:12:52;15.57;;;14.27;;
23682;SDS011;24897;53.514;10.482;2022-07-06T09:15:37;15.87;;;14.57;;
23682;SDS011;24897;53.514;10.482;2022-07-06T09:18:24;16.07;;;14.80;;
23682;SDS011;24897;53.514;10.482;2022-07-06T09:21:08;15.03;;;13.93;;
23682;SDS011;24897;53.514;10.482;2022-07-06T09:23:53;14.93;;;13.77;;
23682;SDS011;24897;53.514;10.482;2022-07-06T09:26:41;15.57;;;14.27;;
23682;SDS011;24897;53.514;10.482;2022-07-06T09:29:29;16.00;;;14.70;;
23682;SDS011;24897;53.514;10.482;2022-07-06T09:32:15;16.63;;;15.27;;
23682;SDS011;24897;53.514;10.482;2022-07-06T09:35:04;16.30;;;14.83;;
23682;SDS011;24897;53.514;10.482;2022-07-06T09:40:52;17.87;;;16.37;;
23682;SDS011;24897;53.514;10.482;2022-07-06T09:43:37;17.73;;;16.23;;
23682;SDS011;24897;53.514;10.482;2022-07-06T09:46:21;18.93;;;17.07;;
23682;SDS011;24897;53.514;10.482;2022-07-06T09:49:06;19.07;;;17.47;;
23682;SDS011;24897;53.514;10.482;2022-07-06T09:51:52;19.53;;;17.67;;
23682;SDS011;24897;53.514;10.482;2022-07-06T09:54:39;20.20;;;18.30;;
23682;SDS011;24897;53.514;10.482;2022-07-06T09:57:25;21.27;;;19.47;;
23682;SDS011;24897;53.514;10.482;2022-07-06T10:00:09;22.17;;;20.27;;
23682;SDS011;24897;53.514;10.482;2022-07-06T10:02:54;21.40;;;19.50;;
23682;SDS011;24897;53.514;10.482;2022-07-06T10:05:43;20.33;;;18.63;;
23682;SDS011;24897;53.514;10.482;2022-07-06T10:08:30;20.23;;;18.40;;
23682;SDS011;24897;53.514;10.482;2022-07-06T10:11:17;19.67;;;18.07;;
23682;SDS011;24897;53.514;10.482;2022-07-06T10:14:05;17.97;;;16.37;;
23682;SDS011;24897;53.514;10.482;2022-07-06T10:16:50;15.80;;;14.33;;
23682;SDS011;24897;53.514;10.482;2022-07-06T10:19:35;15.07;;;13.97;;
23682;SDS011;24897;53.514;10.482;2022-07-06T10:22:21;15.67;;;14.37;;
23682;SDS011;24897;53.514;10.482;2022-07-06T10:25:05;14.53;;;13.33;;
23682;SDS011;24897;53.514;10.482;2022-07-06T10:27:49;15.60;;;14.30;;
23682;SDS011;24897;53.514;10.482;2022-07-06T10:30:35;15.70;;;14.50;;
23682;SDS011;24897;53.514;10.482;2022-07-06T10:33:20;15.50;;;14.30;;
23682;SDS011;24897;53.514;10.482;2022-07-06T10:36:06;15.00;;;13.90;;
23682;SDS011;24897;53.514;10.482;2022-07-06T10:38:51;15.53;;;14.43;;
23682;SDS011;24897;53.514;10.482;2022-07-06T10:41:36;15.80;;;14.70;;
23682;SDS011;24897;53.514;10.482;2022-07-06T10:44:22;15.43;;;14.23;;
23682;SDS011;24897;53.514;10.482;2022-07-06T10:47:07;14.90;;;13.80;;
23682;SDS011;24897;53.514;10.482;2022-07-06T10:49:51;15.93;;;14.63;;
23682;SDS011;24897;53.514;10.482;2022-07-06T10:52:47;16.87;;;15.57;;
23682;SDS011;24897;53.514;10.482;2022-07-06T10:55:35;15.57;;;14.37;;
23682;SDS011;24897;53.514;10.482;2022-07-06T11:01:35;16.27;;;14.63;;
23682;SDS011;24897;53.514;10.482;2022-07-06T11:04:19;15.60;;;14.30;;
23682;SDS011;24897;53.514;10.482;2022-07-06T11:07:17;16.30;;;14.83;;
23682;SDS011;24897;53.514;10.482;2022-07-06T11:10:02;15.87;;;14.53;;
23682;SDS011;24897;53.514;10.482;2022-07-06T11:12:47;15.37;;;14.13;;
23682;SDS011;24897;53.514;10.482;2022-07-06T11:15:46;15.17;;;13.97;;
23682;SDS011;24897;53.514;10.482;2022-07-06T11:18:41;15.00;;;13.90;;
23682;SDS011;24897;53.514;10.482;2022-07-06T11:21:33;15.23;;;14.00;;
23682;SDS011;24897;53.514;10.482;2022-07-06T11:24:38;15.73;;;14.50;;
23682;SDS011;24897;53.514;10.482;2022-07-06T11:27:26;30.20;;;27.00;;
23682;SDS011;24897;53.514;10.482;2022-07-06T11:30:11;19.73;;;17.87;;
23682;SDS011;24897;53.514;10.482;2022-07-06T11:32:56;16.33;;;14.93;;
23682;SDS011;24897;53.514;10.482;2022-07-06T11:35:40;16.43;;;15.13;;
23682;SDS011;24897;53.514;10.482;2022-07-06T11:38:25;15.60;;;14.30;;
23682;SDS011;24897;53.514;10.482;2022-07-06T11:41:09;15.80;;;14.60;;
23682;SDS011;24897;53.514;10.482;2022-07-06T11:43:55;16.40;;;15.10;;
23682;SDS011;24897;53.514;10.482;2022-07-06T11:46:40;15.70;;;14.50;;
23682;SDS011;24897;53.514;10.482;2022-07-06T11:49:24;16.73;;;15.30;;
23682;SDS011;24897;53.514;10.482;2022-07-06T11:52:09;16.03;;;14.73;;
23682;SDS011;24897;53.514;10.482;2022-07-06T11:54:58;16.00;;;14.70;;
23682;SDS011;24897;53.514;10.482;2022-07-06T11:57:44;16.93;;;15.53;;
23682;SDS011;24897;53.514;10.482;2022-07-06T12:00:28;16.50;;;15.20;;
23682;SDS011;24897;53.514;10.482;2022-07-06T12:03:15;17.43;;;15.93;;
23682;SDS011;24897;53.514;10.482;2022-07-06T12:05:59;17.13;;;15.67;;
23682;SDS011;24897;53.514;10.482;2022-07-06T12:08:56;16.50;;;15.00;;
23682;SDS011;24897;53.514;10.482;2022-07-06T12:11:44;16.70;;;15.30;;
23682;SDS011;24897;53.514;10.482;2022-07-06T12:14:31;16.43;;;14.97;;
23682;SDS011;24897;53.514;10.482;2022-07-06T12:17:17;16.43;;;14.90;;
23682;SDS011;24897;53.514;10.482;2022-07-06T12:20:01;15.80;;;14.43;;
23682;SDS011;24897;53.514;10.482;2022-07-06T12:22:45;16.00;;;14.60;;
23682;SDS011;24897;53.514;10.482;2022-07-06T12:25:30;15.67;;;14.37;;
23682;SDS011;24897;53.514;10.482;2022-07-06T12:28:23;15.50;;;14.20;;
23682;SDS011;24897;53.514;10.482;2022-07-06T12:31:07;16.13;;;14.53;;
23682;SDS011;24897;53.514;10.482;2022-07-06T12:33:56;15.53;;;14.20;;
23682;SDS011;24897;53.514;10.482;2022-07-06T12:36:50;15.93;;;14.43;;
23682;SDS011;24897;53.514;10.482;2022-07-06T12:39:43;16.23;;;14.67;;
23682;SDS011;24897;53.514;10.482;2022-07-06T12:42:30;17.20;;;15.60;;
23682;SDS011;24897;53.514;10.482;2022-07-06T12:45:14;16.07;;;14.47;;
23682;SDS011;24897;53.514;10.482;2022-07-06T12:48:05;17.93;;;16.23;;
23682;SDS011;24897;53.514;10.482;2022-07-06T12:50:49;17.57;;;16.07;;
23682;SDS011;24897;53.514;10.482;2022-07-06T12:53:33;16.93;;;15.43;;
23682;SDS011;24897;53.514;10.482;2022-07-06T12:56:18;15.20;;;13.80;;
23682;SDS011;24897;53.514;10.482;2022-07-06T12:59:03;15.47;;;14.10;;
23682;SDS011;24897;53.514;10.482;2022-07-06T13:01:47;15.77;;;14.47;;
23682;SDS011;24897;53.514;10.482;2022-07-06T13:04:31;15.70;;;14.40;;
23682;SDS011;24897;53.514;10.482;2022-07-06T13:07:19;15.23;;;13.83;;
23682;SDS011;24897;53.514;10.482;2022-07-06T13:10:05;15.00;;;13.90;;
23682;SDS011;24897;53.514;10.482;2022-07-06T13:12:51;15.13;;;13.97;;
23682;SDS011;24897;53.514;10.482;2022-07-06T13:15:35;15.57;;;14.17;;
23682;SDS011;24897;53.514;10.482;2022-07-06T13:18:20;15.57;;;14.17;;
23682;SDS011;24897;53.514;10.482;2022-07-06T13:21:04;15.43;;;14.10;;
23682;SDS011;24897;53.514;10.482;2022-07-06T13:23:51;16.10;;;14.53;;
23682;SDS011;24897;53.514;10.482;2022-07-06T13:26:35;15.33;;;13.97;;
23682;SDS011;24897;53.514;10.482;2022-07-06T13:29:19;15.33;;;13.93;;
23682;SDS011;24897;53.514;10.482;2022-07-06T13:32:04;15.17;;;13.97;;
23682;SDS011;24897;53.514;10.482;2022-07-06T13:34:49;14.97;;;13.67;;
23682;SDS011;24897;53.514;10.482;2022-07-06T13:37:33;15.20;;;13.70;;
23682;SDS011;24897;53.514;10.482;2022-07-06T13:40:17;15.17;;;13.87;;
23682;SDS011;24897;53.514;10.482;2022-07-06T13:43:02;16.03;;;14.63;;
23682;SDS011;24897;53.514;10.482;2022-07-06T13:45:49;14.53;;;13.40;;
23682;SDS011;24897;53.514;10.482;2022-07-06T13:48:33;14.77;;;13.53;;
23682;SDS011;24897;53.514;10.482;2022-07-06T13:51:18;15.23;;;13.93;;
23682;SDS011;24897;53.514;10.482;2022-07-06T13:54:02;15.13;;;13.93;;
23682;SDS011;24897;53.514;10.482;2022-07-06T13:56:47;15.90;;;14.33;;
23682;SDS011;24897;53.514;10.482;2022-07-06T13:59:31;16.10;;;14.80;;
23682;SDS011;24897;53.514;10.482;2022-07-06T14:02:15;14.73;;;13.63;;
23682;SDS011;24897;53.514;10.482;2022-07-06T14:04:59;15.43;;;14.23;;
23682;SDS011;24897;53.514;10.482;2022-07-06T14:07:43;14.83;;;13.53;;
23682;SDS011;24897;53.514;10.482;2022-07-06T14:10:28;14.90;;;13.50;;
23682;SDS011;24897;53.514;10.482;2022-07-06T14:13:13;14.90;;;13.60;;
23682;SDS011;24897;53.514;10.482;2022-07-06T14:15:57;15.63;;;14.27;;
23682;SDS011;24897;53.514;10.482;2022-07-06T14:18:41;15.87;;;14.57;;
23682;SDS011;24897;53.514;10.482;2022-07-06T14:21:26;15.50;;;14.20;;
23682;SDS011;24897;53.514;10.482;2022-07-06T14:24:11;15.40;;;14.00;;
23682;SDS011;24897;53.514;10.482;2022-07-06T14:26:56;14.37;;;13.27;;
23682;SDS011;24897;53.514;10.482;2022-07-06T14:29:40;15.10;;;13.90;;
23682;SDS011;24897;53.514;10.482;2022-07-06T14:32:24;15.37;;;14.03;;
23682;SDS011;24897;53.514;10.482;2022-07-06T14:35:08;15.03;;;13.73;;
23682;SDS011;24897;53.514;10.482;2022-07-06T14:37:53;15.17;;;14.07;;
23682;SDS011;24897;53.514;10.482;2022-07-06T14:40:37;14.80;;;13.60;;
23682;SDS011;24897;53.514;10.482;2022-07-06T14:43:21;15.13;;;13.90;;
23682;SDS011;24897;53.514;10.482;2022-07-06T14:46:05;15.13;;;13.93;;
23682;SDS011;24897;53.514;10.482;2022-07-06T14:48:50;15.77;;;14.20;;
23682;SDS011;24897;53.514;10.482;2022-07-06T14:51:35;14.43;;;13.23;;
23682;SDS011;24897;53.514;10.482;2022-07-06T14:54:19;14.90;;;13.70;;
23682;SDS011;24897;53.514;10.482;2022-07-06T14:57:03;14.73;;;13.53;;
23682;SDS011;24897;53.514;10.482;2022-07-06T14:59:48;15.20;;;13.90;;
23682;SDS011;24897;53.514;10.482;2022-07-06T15:02:32;15.30;;;13.80;;
23682;SDS011;24897;53.514;10.482;2022-07-06T15:05:16;15.40;;;13.90;;
23682;SDS011;24897;53.514;10.482;2022-07-06T15:08:00;14.70;;;13.40;;
23682;SDS011;24897;53.514;10.482;2022-07-06T15:10:44;14.87;;;13.77;;
23682;SDS011;24897;53.514;10.482;2022-07-06T15:13:29;15.33;;;14.13;;
23682;SDS011;24897;53.514;10.482;2022-07-06T15:16:13;15.23;;;13.93;;
23682;SDS011;24897;53.514;10.482;2022-07-06T15:18:57;15.20;;;13.80;;
23682;SDS011;24897;53.514;10.482;2022-07-06T15:21:41;14.80;;;13.60;;
23682;SDS011;24897;53.514;10.482;2022-07-06T15:24:25;14.73;;;13.50;;
23682;SDS011;24897;53.514;10.482;2022-07-06T15:27:10;16.07;;;14.47;;
23682;SDS011;24897;53.514;10.482;2022-07-06T15:29:54;15.50;;;14.03;;
23682;SDS011;24897;53.514;10.482;2022-07-06T15:32:39;15.07;;;13.77;;
23682;SDS011;24897;53.514;10.482;2022-07-06T15:35:23;14.70;;;13.53;;
23682;SDS011;24897;53.514;10.482;2022-07-06T15:38:08;14.70;;;13.50;;
23682;SDS011;24897;53.514;10.482;2022-07-06T15:40:52;14.70;;;13.50;;
23682;SDS011;24897;53.514;10.482;2022-07-06T15:43:41;14.97;;;13.63;;
23682;SDS011;24897;53.514;10.482;2022-07-06T15:46:25;14.70;;;13.50;;
23682;SDS011;24897;53.514;10.482;2022-07-06T15:49:10;15.97;;;14.23;;
23682;SDS011;24897;53.514;10.482;2022-07-06T15:51:54;15.60;;;14.00;;
23682;SDS011;24897;53.514;10.482;2022-07-06T15:54:39;15.37;;;13.90;;
23682;SDS011;24897;53.514;10.482;2022-07-06T15:57:23;15.23;;;13.93;;